createdAt,value
2022-10-30T00:00:42.481Z,101537.53
2022-10-30T00:03:16.394Z,101536.09
2022-10-30T00:05:45.208Z,101530.72
2022-10-30T00:08:13.768Z,101533.09
2022-10-30T00:10:41.160Z,101535.22
2022-10-30T00:13:08.482Z,101537.16
2022-10-30T00:15:35.724Z,101542.00
2022-10-30T00:18:02.461Z,101541.88
2022-10-30T00:20:29.268Z,101537.94
2022-10-30T00:22:56.290Z,101531.59
2022-10-30T00:25:23.264Z,101529.13
2022-10-30T00:27:49.784Z,101527.91
2022-10-30T00:30:16.518Z,101523.38
2022-10-30T00:32:43.901Z,101519.69
2022-10-30T00:35:10.902Z,101522.00
2022-10-30T00:37:37.412Z,101520.31
2022-10-30T00:40:05.181Z,101514.28
2022-10-30T00:42:32.573Z,101515.56
2022-10-30T00:44:59.317Z,101511.59
2022-10-30T00:47:39.905Z,101516.50
2022-10-30T00:50:12.498Z,101509.59
2022-10-30T00:52:53.890Z,101511.13
2022-10-30T00:55:26.843Z,101510.50
2022-10-30T00:57:54.021Z,101510.13
2022-10-30T01:00:24.158Z,101503.84
2022-10-30T01:02:52.514Z,101502.97
2022-10-30T01:05:22.478Z,101492.03
2022-10-30T01:07:49.029Z,101488.50
2022-10-30T01:10:16.501Z,101496.69
2022-10-30T01:12:44.720Z,101493.97
2022-10-30T01:15:13.183Z,101486.38
2022-10-30T01:18:16.613Z,101492.03
2022-10-30T01:20:52.380Z,101492.91
2022-10-30T01:23:37.231Z,101489.31
2022-10-30T01:26:38.592Z,101476.94
2022-10-30T01:29:26.673Z,101478.59
2022-10-30T01:32:05.412Z,101486.00
2022-10-30T01:34:49.890Z,101490.59
2022-10-30T01:37:25.271Z,101491.69
2022-10-30T01:39:51.796Z,101493.81
2022-10-30T01:42:43.752Z,101487.53
2022-10-30T01:45:31.513Z,101494.88
2022-10-30T01:48:03.918Z,101478.47
2022-10-30T01:51:08.306Z,101476.78
2022-10-30T01:54:08.089Z,101478.94
2022-10-30T01:56:40.379Z,101470.13
2022-10-30T01:59:43.086Z,101463.22
2022-10-30T02:02:10.687Z,101464.53
2022-10-30T02:04:38.190Z,101465.56
2022-10-30T02:07:04.757Z,101462.84
2022-10-30T02:09:31.787Z,101468.78
2022-10-30T02:11:59.720Z,101472.81
2022-10-30T02:14:40.299Z,101468.03
2022-10-30T02:17:08.134Z,101461.72
2022-10-30T02:19:35.497Z,101457.56
2022-10-30T02:22:02.191Z,101465.75
2022-10-30T02:24:30.326Z,101474.19
2022-10-30T02:26:56.889Z,101471.91
2022-10-30T02:29:23.671Z,101473.19
2022-10-30T02:31:50.514Z,101467.72
2022-10-30T02:34:17.374Z,101469.88
2022-10-30T02:36:43.913Z,101463.56
2022-10-30T02:39:10.441Z,101465.94
2022-10-30T02:41:37.115Z,101473.28
2022-10-30T02:44:04.949Z,101469.97
2022-10-30T02:46:31.497Z,101478.38
2022-10-30T02:48:58.033Z,101480.50
2022-10-30T02:51:24.622Z,101471.94
2022-10-30T02:53:51.190Z,101474.88
2022-10-30T02:56:17.994Z,101470.47
2022-10-30T02:58:44.494Z,101479.34
2022-10-30T03:01:14.639Z,101480.63
2022-10-30T03:03:41.995Z,101482.78
2022-10-30T03:06:11.106Z,101492.84
2022-10-30T03:08:37.704Z,101490.59
2022-10-30T03:11:12.874Z,101486.66
2022-10-30T03:13:40.988Z,101486.88
2022-10-30T03:16:10.981Z,101479.75
2022-10-30T03:18:37.886Z,101488.16
2022-10-30T03:21:06.567Z,101490.28
2022-10-30T03:23:33.577Z,101485.88
2022-10-30T03:26:00.424Z,101490.28
2022-10-30T03:28:29.062Z,101488.59
2022-10-30T03:31:22.013Z,101485.03
2022-10-30T03:33:48.565Z,101488.84
2022-10-30T03:36:15.596Z,101496.78
2022-10-30T03:38:42.893Z,101484.19
2022-10-30T03:41:10.105Z,101489.66
2022-10-30T03:43:36.766Z,101481.25
2022-10-30T03:46:03.522Z,101484.59
2022-10-30T03:48:30.025Z,101488.53
2022-10-30T03:50:58.903Z,101490.81
2022-10-30T03:53:26.556Z,101486.56
2022-10-30T03:55:56.763Z,101483.16
2022-10-30T03:58:23.474Z,101479.72
2022-10-30T04:00:50.029Z,101488.56
2022-10-30T04:03:16.536Z,101488.09
2022-10-30T04:05:43.121Z,101487.66
2022-10-30T04:08:13.072Z,101496.44
2022-10-30T04:10:44.395Z,101484.22
2022-10-30T04:13:12.728Z,101480.41
2022-10-30T04:15:39.515Z,101486.28
2022-10-30T04:18:06.404Z,101479.75
2022-10-30T04:20:33.072Z,101486.28
2022-10-30T04:23:04.801Z,101484.84
2022-10-30T04:25:33.119Z,101471.41
2022-10-30T04:28:00.910Z,101483.63
2022-10-30T04:30:27.797Z,101475.44
2022-10-30T04:32:56.567Z,101481.09
2022-10-30T04:35:26.836Z,101484.06
2022-10-30T04:37:54.963Z,101483.25
2022-10-30T04:40:23.498Z,101478.84
2022-10-30T04:42:50.639Z,101490.59
2022-10-30T04:45:18.079Z,101494.75
2022-10-30T04:47:45.437Z,101498.34
2022-10-30T04:50:12.539Z,101488.22
2022-10-30T04:52:39.516Z,101486.13
2022-10-30T04:55:07.244Z,101488.63
2022-10-30T04:57:34.480Z,101485.66
2022-10-30T05:00:01.012Z,101480.81
2022-10-30T05:02:27.609Z,101477.03
2022-10-30T05:04:54.449Z,101484.50
2022-10-30T05:07:21.026Z,101483.22
2022-10-30T05:09:47.563Z,101486.56
2022-10-30T05:12:14.185Z,101484.41
2022-10-30T05:14:40.671Z,101487.78
2022-10-30T05:17:07.193Z,101487.31
2022-10-30T05:19:33.746Z,101486.84
2022-10-30T05:22:00.487Z,101484.72
2022-10-30T05:24:26.936Z,101481.78
2022-10-30T05:26:53.663Z,101489.75
2022-10-30T05:29:20.140Z,101490.78
2022-10-30T05:31:46.746Z,101497.31
2022-10-30T05:34:13.256Z,101501.97
2022-10-30T05:36:40.466Z,101494.81
2022-10-30T05:39:07.326Z,101487.91
2022-10-30T05:41:34.339Z,101502.66
2022-10-30T05:44:00.904Z,101503.69
2022-10-30T05:46:27.435Z,101508.56
2022-10-30T05:48:53.926Z,101507.13
2022-10-30T05:51:20.508Z,101507.38
2022-10-30T05:53:49.915Z,101509.00
2022-10-30T05:56:16.485Z,101514.47
2022-10-30T05:58:43.008Z,101513.91
2022-10-30T06:01:09.654Z,101510.53
2022-10-30T06:03:36.215Z,101514.97
2022-10-30T06:06:02.780Z,101512.69
2022-10-30T06:08:29.272Z,101511.25
2022-10-30T06:10:55.999Z,101508.13
2022-10-30T06:13:22.609Z,101511.91
2022-10-30T06:15:49.238Z,101520.59
2022-10-30T06:18:15.787Z,101518.06
2022-10-30T06:20:42.336Z,101511.16
2022-10-30T06:23:10.257Z,101511.38
2022-10-30T06:25:41.142Z,101504.47
2022-10-30T06:28:10.279Z,101509.13
2022-10-30T06:30:36.810Z,101514.81
2022-10-30T06:33:05.485Z,101510.63
2022-10-30T06:35:32.033Z,101514.66
2022-10-30T06:38:00.387Z,101521.78
2022-10-30T06:40:30.285Z,101527.22
2022-10-30T06:42:57.784Z,101524.50
2022-10-30T06:45:25.057Z,101533.53
2022-10-30T06:47:52.273Z,101537.09
2022-10-30T06:50:20.589Z,101533.53
2022-10-30T06:52:48.265Z,101530.44
2022-10-30T06:55:14.972Z,101537.41
2022-10-30T06:57:41.951Z,101533.63
2022-10-30T07:00:09.816Z,101536.56
2022-10-30T07:02:36.400Z,101534.06
2022-10-30T07:05:03.147Z,101545.84
2022-10-30T07:07:30.092Z,101542.00
2022-10-30T07:09:56.660Z,101543.69
2022-10-30T07:12:23.601Z,101545.38
2022-10-30T07:14:50.454Z,101547.88
2022-10-30T07:17:17.251Z,101545.13
2022-10-30T07:19:43.942Z,101555.00
2022-10-30T07:22:10.856Z,101556.91
2022-10-30T07:24:37.531Z,101567.00
2022-10-30T07:27:04.457Z,101562.16
2022-10-30T07:29:31.002Z,101565.69
2022-10-30T07:32:02.702Z,101568.81
2022-10-30T07:34:30.726Z,101568.38
2022-10-30T07:36:57.609Z,101573.16
2022-10-30T07:39:24.201Z,101577.34
2022-10-30T07:41:50.823Z,101579.84
2022-10-30T07:44:17.582Z,101579.19
2022-10-30T07:46:44.265Z,101576.38
2022-10-30T07:49:10.825Z,101573.78
2022-10-30T07:51:37.380Z,101572.03
2022-10-30T07:54:04.014Z,101577.66
2022-10-30T07:56:30.552Z,101585.41
2022-10-30T07:58:57.054Z,101584.34
2022-10-30T08:01:23.690Z,101593.53
2022-10-30T08:03:50.398Z,101584.03
2022-10-30T08:06:20.019Z,101588.22
2022-10-30T08:08:49.556Z,101585.00
2022-10-30T08:11:16.103Z,101593.38
2022-10-30T08:13:42.790Z,101587.22
2022-10-30T08:16:09.389Z,101588.19
2022-10-30T08:18:36.027Z,101595.72
2022-10-30T08:21:02.614Z,101601.34
2022-10-30T08:23:29.193Z,101593.31
2022-10-30T08:26:00.423Z,101594.25
2022-10-30T08:28:31.659Z,101597.13
2022-10-30T08:31:00.666Z,101606.34
2022-10-30T08:33:27.293Z,101604.00
2022-10-30T08:35:56.793Z,101599.47
2022-10-30T08:38:24.380Z,101599.38
2022-10-30T08:40:51.675Z,101595.94
2022-10-30T08:43:18.656Z,101609.78
2022-10-30T08:45:45.185Z,101602.50
2022-10-30T08:48:13.808Z,101601.81
2022-10-30T08:50:40.729Z,101599.81
2022-10-30T08:53:10.197Z,101598.88
2022-10-30T08:55:36.829Z,101599.63
2022-10-30T08:58:03.940Z,101597.56
2022-10-30T09:00:30.837Z,101600.44
2022-10-30T09:02:58.160Z,101597.38
2022-10-30T09:05:25.045Z,101604.41
2022-10-30T09:08:01.271Z,101607.84
2022-10-30T09:10:28.765Z,101601.41
2022-10-30T09:12:59.451Z,101607.38
2022-10-30T09:15:26.805Z,101609.19
2022-10-30T09:18:04.628Z,101607.16
2022-10-30T09:20:31.848Z,101611.81
2022-10-30T09:22:59.026Z,101609.19
2022-10-30T09:25:26.147Z,101614.88
2022-10-30T09:27:52.716Z,101604.63
2022-10-30T09:30:19.356Z,101610.81
2022-10-30T09:32:48.918Z,101613.78
2022-10-30T09:35:17.687Z,101613.38
2022-10-30T09:37:44.290Z,101619.44
2022-10-30T09:40:19.438Z,101615.38
2022-10-30T09:42:48.394Z,101612.13
2022-10-30T09:45:34.507Z,101616.03
2022-10-30T09:48:11.446Z,101616.97
2022-10-30T09:51:09.794Z,101614.44
2022-10-30T09:53:52.282Z,101602.47
2022-10-30T09:56:29.744Z,101603.38
2022-10-30T09:59:27.181Z,101603.22
2022-10-30T10:02:27.113Z,101608.66
2022-10-30T10:05:00.300Z,101602.78
2022-10-30T10:07:37.721Z,101602.34
2022-10-30T10:10:11.420Z,101610.41
2022-10-30T10:12:43.059Z,101608.94
2022-10-30T10:15:49.826Z,101614.59
2022-10-30T10:18:25.520Z,101612.50
2022-10-30T10:20:56.455Z,101613.50
2022-10-30T10:23:39.157Z,101600.47
2022-10-30T10:26:16.709Z,101604.19
2022-10-30T10:28:45.944Z,101600.47
2022-10-30T10:31:22.312Z,101605.63
2022-10-30T10:34:09.058Z,101600.00
2022-10-30T10:36:57.213Z,101608.44
2022-10-30T10:39:26.866Z,101607.41
2022-10-30T10:42:24.160Z,101607.81
2022-10-30T10:45:35.276Z,101606.81
2022-10-30T10:48:23.422Z,101612.81
2022-10-30T10:50:55.651Z,101600.00
2022-10-30T10:53:44.983Z,101609.44
2022-10-30T10:56:13.772Z,101608.13
2022-10-30T10:58:54.579Z,101611.00
2022-10-30T11:01:30.260Z,101609.44
2022-10-30T11:04:03.189Z,101602.09
2022-10-30T11:06:36.231Z,101602.97
2022-10-30T11:09:16.558Z,101599.94
2022-10-30T11:11:47.145Z,101598.34
2022-10-30T11:14:17.197Z,101600.34
2022-10-30T11:17:17.759Z,101603.72
2022-10-30T11:19:46.543Z,101608.97
2022-10-30T11:22:37.240Z,101595.47
2022-10-30T11:25:26.944Z,101590.53
2022-10-30T11:27:57.718Z,101602.47
2022-10-30T11:30:28.538Z,101590.56
2022-10-30T11:32:59.095Z,101593.69
2022-10-30T11:35:26.365Z,101596.47
2022-10-30T11:38:13.704Z,101598.44
2022-10-30T11:40:47.279Z,101601.72
2022-10-30T11:43:18.933Z,101604.50
2022-10-30T11:45:45.559Z,101594.84
2022-10-30T11:48:34.016Z,101600.66
2022-10-30T11:51:02.356Z,101603.69
2022-10-30T11:53:35.215Z,101603.69
2022-10-30T11:56:04.887Z,101603.97
2022-10-30T11:58:37.874Z,101598.44
2022-10-30T12:01:12.216Z,101600.63
2022-10-30T12:03:40.833Z,101597.88
2022-10-30T12:06:29.167Z,101600.63
2022-10-30T12:09:04.672Z,101604.47
2022-10-30T12:11:34.120Z,101608.91
2022-10-30T12:14:01.024Z,101600.34
2022-10-30T12:16:28.332Z,101606.41
2022-10-30T12:19:02.023Z,101599.50
2022-10-30T12:21:35.162Z,101595.09
2022-10-30T12:24:07.014Z,101597.84
2022-10-30T12:26:36.058Z,101592.31
2022-10-30T12:29:07.098Z,101596.19
2022-10-30T12:31:46.951Z,101585.13
2022-10-30T12:34:40.362Z,101589.28
2022-10-30T12:37:14.888Z,101591.22
2022-10-30T12:39:57.013Z,101588.47
2022-10-30T12:42:25.001Z,101589.00
2022-10-30T12:45:05.737Z,101598.41
2022-10-30T12:47:35.042Z,101594.00
2022-10-30T12:50:17.619Z,101588.47
2022-10-30T12:52:51.504Z,101585.41
2022-10-30T12:55:24.268Z,101590.94
2022-10-30T12:58:12.559Z,101593.97
2022-10-30T13:00:50.473Z,101591.50
2022-10-30T13:03:36.244Z,101593.97
2022-10-30T13:06:24.040Z,101596.75
2022-10-30T13:09:04.299Z,101597.56
2022-10-30T13:11:43.300Z,101589.53
2022-10-30T13:14:38.753Z,101589.53
2022-10-30T13:17:11.083Z,101594.00
2022-10-30T13:19:39.885Z,101592.88
2022-10-30T13:22:15.675Z,101600.31
2022-10-30T13:25:05.211Z,101593.41
2022-10-30T13:27:43.829Z,101585.69
2022-10-30T13:30:12.924Z,101586.22
2022-10-30T13:32:53.555Z,101589.25
2022-10-30T13:35:38.521Z,101577.38
2022-10-30T13:38:23.176Z,101579.59
2022-10-30T13:40:58.670Z,101581.25
2022-10-30T13:43:32.814Z,101562.19
2022-10-30T13:46:50.682Z,101566.06
2022-10-30T13:49:46.175Z,101568.25
2022-10-30T13:52:16.078Z,101568.50
2022-10-30T13:55:04.638Z,101570.44
2022-10-30T13:57:46.505Z,101570.44
2022-10-30T14:00:43.242Z,101572.91
2022-10-30T14:03:24.374Z,101566.56
2022-10-30T14:05:58.741Z,101567.66
2022-10-30T14:08:46.639Z,101576.22
2022-10-30T14:11:14.381Z,101580.88
2022-10-30T14:13:53.891Z,101578.69
2022-10-30T14:16:43.777Z,101582.81
2022-10-30T14:19:15.695Z,101589.44
2022-10-30T14:21:43.836Z,101586.94
2022-10-30T14:24:13.141Z,101581.94
2022-10-30T14:26:49.950Z,101584.44
2022-10-30T14:29:34.817Z,101579.44
2022-10-30T14:32:13.200Z,101580.53
2022-10-30T14:34:44.905Z,101576.66
2022-10-30T14:37:12.967Z,101570.59
2022-10-30T14:39:42.559Z,101582.16
2022-10-30T14:42:23.464Z,101561.72
2022-10-30T14:45:14.751Z,101574.41
2022-10-30T14:47:57.465Z,101568.00
2022-10-30T14:50:26.815Z,101566.06
2022-10-30T14:53:11.214Z,101564.09
2022-10-30T14:56:00.226Z,101571.53
2022-10-30T14:58:29.566Z,101561.84
2022-10-30T15:01:45.925Z,101566.75
2022-10-30T15:04:27.673Z,101563.41
2022-10-30T15:06:59.879Z,101556.47
2022-10-30T15:09:56.315Z,101559.41
2022-10-30T15:12:25.679Z,101550.81
2022-10-30T15:14:59.350Z,101543.59
2022-10-30T15:17:41.518Z,101553.72
2022-10-30T15:20:15.950Z,101550.13
2022-10-30T15:22:42.785Z,101548.41
2022-10-30T15:25:33.587Z,101551.38
2022-10-30T15:28:01.164Z,101553.22
2022-10-30T15:30:28.369Z,101553.69
2022-10-30T15:32:55.001Z,101550.34
2022-10-30T15:35:24.573Z,101550.78
2022-10-30T15:38:07.799Z,101542.41
2022-10-30T15:40:36.196Z,101543.44
2022-10-30T15:43:05.276Z,101545.34
2022-10-30T15:45:44.474Z,101544.94
2022-10-30T15:48:31.552Z,101552.53
2022-10-30T15:51:04.077Z,101562.06
2022-10-30T15:54:00.437Z,101568.31
2022-10-30T15:56:44.376Z,101573.16
2022-10-30T15:59:24.641Z,101572.47
2022-10-30T16:01:54.871Z,101575.63
2022-10-30T16:04:31.586Z,101567.56
2022-10-30T16:07:00.932Z,101569.91
2022-10-30T16:09:28.815Z,101561.03
2022-10-30T16:11:58.400Z,101564.19
2022-10-30T16:14:28.515Z,101561.03
2022-10-30T16:16:59.345Z,101565.63
2022-10-30T16:19:30.698Z,101562.19
2022-10-30T16:21:58.877Z,101560.72
2022-10-30T16:24:33.164Z,101560.31
2022-10-30T16:27:26.103Z,101564.56
2022-10-30T16:29:56.667Z,101553.97
2022-10-30T16:32:31.074Z,101563.63
2022-10-30T16:34:59.387Z,101553.66
2022-10-30T16:37:38.541Z,101567.63
2022-10-30T16:40:15.053Z,101564.66
2022-10-30T16:42:45.159Z,101567.13
2022-10-30T16:45:11.756Z,101565.97
2022-10-30T16:47:45.849Z,101559.97
2022-10-30T16:50:15.577Z,101562.38
2022-10-30T16:52:43.506Z,101562.97
2022-10-30T16:55:20.001Z,101576.25
2022-10-30T16:57:52.548Z,101574.25
2022-10-30T17:00:24.287Z,101566.59
2022-10-30T17:02:55.744Z,101574.41
2022-10-30T17:05:27.426Z,101576.47
2022-10-30T17:07:59.597Z,101579.03
2022-10-30T17:10:42.284Z,101579.38
2022-10-30T17:13:33.831Z,101579.19
2022-10-30T17:16:24.796Z,101584.41
2022-10-30T17:18:53.262Z,101585.00
2022-10-30T17:21:40.870Z,101590.50
2022-10-30T17:24:20.584Z,101587.50
2022-10-30T17:26:56.312Z,101584.75
2022-10-30T17:29:38.142Z,101582.00
2022-10-30T17:32:14.829Z,101581.16
2022-10-30T17:34:41.384Z,101571.25
2022-10-30T17:37:07.912Z,101586.34
2022-10-30T17:39:34.425Z,101583.00
2022-10-30T17:42:01.006Z,101589.03
2022-10-30T17:44:30.722Z,101586.03
2022-10-30T17:46:57.265Z,101593.88
2022-10-30T17:49:28.088Z,101592.72
2022-10-30T17:51:54.690Z,101596.56
2022-10-30T17:54:21.493Z,101606.47
2022-10-30T17:56:48.155Z,101604.13
2022-10-30T17:59:14.862Z,101602.41
2022-10-30T18:01:42.156Z,101607.31
2022-10-30T18:04:19.598Z,101609.00
2022-10-30T18:06:48.356Z,101609.25
2022-10-30T18:09:14.975Z,101609.09
2022-10-30T18:11:41.718Z,101613.41
2022-10-30T18:14:10.571Z,101616.75
2022-10-30T18:16:37.191Z,101613.66
2022-10-30T18:19:03.689Z,101614.19
2022-10-30T18:21:31.388Z,101618.25
2022-10-30T18:23:58.103Z,101609.69
2022-10-30T18:26:26.785Z,101613.25
2022-10-30T18:28:54.622Z,101616.50
2022-10-30T18:31:23.755Z,101622.53
2022-10-30T18:33:51.040Z,101619.44
2022-10-30T18:36:20.321Z,101625.41
2022-10-30T18:38:47.318Z,101617.06
2022-10-30T18:41:33.736Z,101622.25
2022-10-30T18:44:01.252Z,101620.59
2022-10-30T18:46:30.546Z,101624.66
2022-10-30T18:48:57.686Z,101622.41
2022-10-30T18:51:27.537Z,101631.38
2022-10-30T18:53:55.124Z,101639.88
2022-10-30T18:56:30.061Z,101634.75
2022-10-30T18:59:01.980Z,101631.66
2022-10-30T19:01:32.139Z,101624.19
2022-10-30T19:04:03.870Z,101630.50
2022-10-30T19:06:30.939Z,101621.91
2022-10-30T19:08:57.464Z,101630.66
2022-10-30T19:11:25.369Z,101620.28
2022-10-30T19:13:52.495Z,101616.38
2022-10-30T19:16:20.136Z,101622.13
2022-10-30T19:18:47.530Z,101625.59
2022-10-30T19:21:22.021Z,101618.56
2022-10-30T19:23:48.985Z,101627.56
2022-10-30T19:26:16.264Z,101612.66
2022-10-30T19:28:43.501Z,101626.41
2022-10-30T19:31:18.190Z,101614.13
2022-10-30T19:33:45.765Z,101619.63
2022-10-30T19:36:33.952Z,101624.66
2022-10-30T19:39:07.276Z,101620.47
2022-10-30T19:41:35.551Z,101622.38
2022-10-30T19:44:02.075Z,101632.78
2022-10-30T19:46:28.885Z,101632.16
2022-10-30T19:48:57.711Z,101633.97
2022-10-30T19:51:24.767Z,101634.81
2022-10-30T19:53:53.174Z,101636.38
2022-10-30T19:56:21.815Z,101635.19
2022-10-30T19:58:49.016Z,101626.34
2022-10-30T20:01:16.162Z,101642.69
2022-10-30T20:03:43.042Z,101635.41
2022-10-30T20:06:12.239Z,101632.19
2022-10-30T20:08:38.806Z,101638.13
2022-10-30T20:11:05.679Z,101632.53
2022-10-30T20:13:33.438Z,101634.91
2022-10-30T20:16:02.639Z,101642.78
2022-10-30T20:18:31.904Z,101639.91
2022-10-30T20:21:00.779Z,101637.66
2022-10-30T20:23:28.066Z,101641.34
2022-10-30T20:26:00.319Z,101643.34
2022-10-30T20:28:38.527Z,101640.84
2022-10-30T20:31:07.155Z,101650.38
2022-10-30T20:33:34.874Z,101657.41
2022-10-30T20:36:01.760Z,101654.91
2022-10-30T20:38:32.961Z,101646.81
2022-10-30T20:41:01.476Z,101650.84
2022-10-30T20:43:32.785Z,101657.63
2022-10-30T20:46:00.766Z,101656.41
2022-10-30T20:48:27.942Z,101661.31
2022-10-30T20:50:56.408Z,101660.09
2022-10-30T20:53:23.184Z,101654.00
2022-10-30T20:55:49.703Z,101658.53
2022-10-30T20:58:16.642Z,101653.97
2022-10-30T21:00:43.944Z,101658.41
2022-10-30T21:03:14.414Z,101656.34
2022-10-30T21:05:44.266Z,101659.78
2022-10-30T21:08:12.406Z,101652.03
2022-10-30T21:10:39.825Z,101662.03
2022-10-30T21:13:09.331Z,101658.44
2022-10-30T21:15:41.503Z,101663.31
2022-10-30T21:18:09.322Z,101659.16
2022-10-30T21:20:36.781Z,101663.75
2022-10-30T21:23:03.841Z,101663.63
2022-10-30T21:25:32.250Z,101662.19
2022-10-30T21:27:59.124Z,101658.25
2022-10-30T21:30:25.888Z,101660.16
2022-10-30T21:32:52.877Z,101647.97
2022-10-30T21:35:20.218Z,101650.13
2022-10-30T21:37:46.757Z,101657.72
2022-10-30T21:40:13.615Z,101647.69
2022-10-30T21:42:40.157Z,101653.00
2022-10-30T21:45:07.423Z,101652.88
2022-10-30T21:47:33.965Z,101646.16
2022-10-30T21:50:00.474Z,101644.47
2022-10-30T21:52:27.181Z,101647.69
2022-10-30T21:54:53.703Z,101645.41
2022-10-30T21:57:20.231Z,101650.88
2022-10-30T21:59:46.769Z,101644.78
2022-10-30T22:02:15.293Z,101648.19
2022-10-30T22:04:41.989Z,101644.25
2022-10-30T22:07:08.764Z,101645.56
2022-10-30T22:09:35.782Z,101640.78
2022-10-30T22:12:02.918Z,101645.88
2022-10-30T22:14:29.531Z,101650.13
2022-10-30T22:16:56.339Z,101648.06
2022-10-30T22:19:22.870Z,101641.16
2022-10-30T22:21:49.445Z,101654.81
2022-10-30T22:24:17.452Z,101642.66
2022-10-30T22:26:44.025Z,101645.16
2022-10-30T22:29:11.566Z,101654.66
2022-10-30T22:31:38.725Z,101655.31
2022-10-30T22:34:05.283Z,101659.97
2022-10-30T22:36:33.484Z,101663.75
2022-10-30T22:39:12.644Z,101666.31
2022-10-30T22:41:39.842Z,101659.19
2022-10-30T22:44:08.752Z,101671.19
2022-10-30T22:46:36.212Z,101667.22
2022-10-30T22:49:03.118Z,101663.03
2022-10-30T22:51:32.718Z,101670.41
2022-10-30T22:54:01.559Z,101664.94
2022-10-30T22:56:31.189Z,101668.72
2022-10-30T22:59:00.263Z,101670.41
2022-10-30T23:01:29.229Z,101674.19
2022-10-30T23:03:57.206Z,101675.25
2022-10-30T23:06:23.978Z,101692.09
2022-10-30T23:08:52.483Z,101692.56
2022-10-30T23:11:19.157Z,101693.59
2022-10-30T23:13:46.015Z,101689.19
2022-10-30T23:16:21.420Z,101689.66
2022-10-30T23:18:49.735Z,101687.13
2022-10-30T23:21:19.530Z,101679.78
2022-10-30T23:23:46.273Z,101689.03
2022-10-30T23:26:21.233Z,101691.75
2022-10-30T23:28:49.003Z,101697.84
2022-10-30T23:31:25.305Z,101699.31
2022-10-30T23:33:53.960Z,101702.84
2022-10-30T23:36:20.749Z,101707.88
2022-10-30T23:38:53.866Z,101706.59
2022-10-30T23:41:21.573Z,101716.22
2022-10-30T23:43:48.240Z,101721.28
2022-10-30T23:46:14.789Z,101727.56
2022-10-30T23:48:41.339Z,101729.25
2022-10-30T23:51:08.696Z,101723.78
2022-10-30T23:53:35.414Z,101720.00
2022-10-30T23:56:02.560Z,101727.97
2022-10-30T23:58:29.132Z,101727.13
